This is the latest recevied weather packets stored in our database for station/object KO4APQ. If no packets are shown the sender has not sent any weather packets the latest 10 day(s).
| Time | Temp. | Humidity | Pressure | Rain* | Wind** | Luminosity | Snow |
|---|---|---|---|---|---|---|---|
| 1777765626 | 16.11° C | 77% | 1013.3 hPa | 0 mm | - | 41 W/m² | - |
| 1777765016 | 15.56° C | 79% | 1013.1 hPa | 0 mm | - | 43 W/m² | - |
| 1777764409 | 15.56° C | 77% | 1013.3 hPa | 0 mm | - | 34 W/m² | - |
| 1777764107 | 16.11° C | 75% | 1012.8 hPa | 0 mm | - | 39 W/m² | - |
| 1777763200 | 17.78° C | 67% | 1012.4 hPa | 0 mm | - | 69 W/m² | - |
| 1777762291 | 17.22° C | 66% | 1012.4 hPa | 0 mm | - | 175 W/m² | - |
| 1777761381 | 17.78° C | 68% | 1012.3 hPa | 0 mm | - | 180 W/m² | - |
| 1777761079 | 17.22° C | 68% | 1012.3 hPa | 0 mm | - | 237 W/m² | - |
| 1777760776 | 17.78° C | 66% | 1012.3 hPa | 0 mm | - | 111 W/m² | - |
| 1777760472 | 17.78° C | 69% | 1012.4 hPa | 0 mm | - | 272 W/m² | - |
| 1777760168 | 17.22° C | 69% | 1012.1 hPa | 0 mm | - | 328 W/m² | - |
| 1777759866 | 16.67° C | 68% | 1012.2 hPa | 0 mm | - | 355 W/m² | - |
| 1777759561 | 16.11° C | 78% | 1011.9 hPa | 0 mm | - | 356 W/m² | - |
| 1777759258 | 16.11° C | 75% | 1012.1 hPa | 0 mm | - | 307 W/m² | - |
| 1777758955 | 16.67° C | 76% | 1011.9 hPa | 0 mm | - | 90 W/m² | - |
| 1777758652 | 17.22° C | 66% | 1011.7 hPa | 0 mm | - | 27 W/m² | - |
| 1777758047 | 17.78° C | 65% | 1011.7 hPa | 0 mm | - | 26 W/m² | - |
| 1777757743 | 17.78° C | 63% | 1011.5 hPa | 0 mm | - | 50 W/m² | - |
| 1777757441 | 17.78° C | 59% | 1011.6 hPa | 0 mm | - | 99 W/m² | - |
| 1777757140 | 17.78° C | 59% | 1012 hPa | 0 mm | - | 75 W/m² | - |
| 1777756837 | 17.78° C | 58% | 1011.8 hPa | 0 mm | - | 51 W/m² | - |
| 1777756532 | 17.78° C | 59% | 1011.7 hPa | 0 mm | - | 49 W/m² | - |
| 1777756230 | 17.78° C | 60% | 1011.6 hPa | 0 mm | - | 32 W/m² | - |
| 1777755927 | 18.33° C | 58% | 1011.4 hPa | 0 mm | - | 42 W/m² | - |
| 1777755624 | 18.33° C | 57% | 1011.5 hPa | 0 mm | - | 60 W/m² | - |
* Rain latest hour (hover to see other rain measurements)
** Current wind speed in m/s (hover to see current wind gust speed)